sensor_id;sensor_type;location;lat;lon;timestamp;P1;durP1;ratioP1;P2;durP2;ratioP2
77726;SDS011;68312;53.502;10.030;2023-05-07T00:01:16;13.85;;;7.57;;
77726;SDS011;68312;53.502;10.030;2023-05-07T00:03:42;11.73;;;7.38;;
77726;SDS011;68312;53.502;10.030;2023-05-07T00:06:07;15.50;;;7.68;;
77726;SDS011;68312;53.502;10.030;2023-05-07T00:08:33;12.80;;;7.10;;
77726;SDS011;68312;53.502;10.030;2023-05-07T00:10:58;14.25;;;7.28;;
77726;SDS011;68312;53.502;10.030;2023-05-07T00:13:24;12.57;;;7.55;;
77726;SDS011;68312;53.502;10.030;2023-05-07T00:15:50;12.18;;;6.88;;
77726;SDS011;68312;53.502;10.030;2023-05-07T00:18:15;13.77;;;6.47;;
77726;SDS011;68312;53.502;10.030;2023-05-07T00:20:40;14.63;;;7.05;;
77726;SDS011;68312;53.502;10.030;2023-05-07T00:23:06;12.88;;;6.82;;
77726;SDS011;68312;53.502;10.030;2023-05-07T00:25:31;10.43;;;6.40;;
77726;SDS011;68312;53.502;10.030;2023-05-07T00:27:57;12.80;;;6.53;;
77726;SDS011;68312;53.502;10.030;2023-05-07T00:30:22;11.13;;;6.55;;
77726;SDS011;68312;53.502;10.030;2023-05-07T00:32:48;13.18;;;6.80;;
77726;SDS011;68312;53.502;10.030;2023-05-07T00:35:16;12.23;;;6.47;;
77726;SDS011;68312;53.502;10.030;2023-05-07T00:37:42;13.40;;;6.72;;
77726;SDS011;68312;53.502;10.030;2023-05-07T00:40:10;11.85;;;6.57;;
77726;SDS011;68312;53.502;10.030;2023-05-07T00:42:36;13.95;;;6.93;;
77726;SDS011;68312;53.502;10.030;2023-05-07T00:45:02;10.13;;;6.13;;
77726;SDS011;68312;53.502;10.030;2023-05-07T00:47:29;10.63;;;6.03;;
77726;SDS011;68312;53.502;10.030;2023-05-07T00:49:55;9.13;;;5.40;;
77726;SDS011;68312;53.502;10.030;2023-05-07T00:52:22;9.38;;;6.05;;
77726;SDS011;68312;53.502;10.030;2023-05-07T00:54:52;8.90;;;5.43;;
77726;SDS011;68312;53.502;10.030;2023-05-07T00:57:18;8.82;;;4.88;;
77726;SDS011;68312;53.502;10.030;2023-05-07T00:59:50;11.40;;;5.75;;
77726;SDS011;68312;53.502;10.030;2023-05-07T01:02:17;8.45;;;5.32;;
77726;SDS011;68312;53.502;10.030;2023-05-07T01:04:42;10.23;;;5.70;;
77726;SDS011;68312;53.502;10.030;2023-05-07T01:07:08;9.10;;;5.60;;
77726;SDS011;68312;53.502;10.030;2023-05-07T01:09:37;10.20;;;6.18;;
77726;SDS011;68312;53.502;10.030;2023-05-07T01:12:04;10.40;;;5.93;;
77726;SDS011;68312;53.502;10.030;2023-05-07T01:14:32;9.57;;;6.25;;
77726;SDS011;68312;53.502;10.030;2023-05-07T01:16:58;10.13;;;5.45;;
77726;SDS011;68312;53.502;10.030;2023-05-07T01:19:28;11.38;;;5.15;;
77726;SDS011;68312;53.502;10.030;2023-05-07T01:21:54;8.43;;;5.53;;
77726;SDS011;68312;53.502;10.030;2023-05-07T01:24:36;8.55;;;4.82;;
77726;SDS011;68312;53.502;10.030;2023-05-07T01:27:03;9.80;;;5.70;;
77726;SDS011;68312;53.502;10.030;2023-05-07T01:29:29;9.65;;;5.93;;
77726;SDS011;68312;53.502;10.030;2023-05-07T01:31:58;9.45;;;5.50;;
77726;SDS011;68312;53.502;10.030;2023-05-07T01:34:30;8.75;;;5.38;;
77726;SDS011;68312;53.502;10.030;2023-05-07T01:36:59;9.70;;;4.72;;
77726;SDS011;68312;53.502;10.030;2023-05-07T01:39:28;9.48;;;5.35;;
77726;SDS011;68312;53.502;10.030;2023-05-07T01:41:55;8.27;;;4.88;;
77726;SDS011;68312;53.502;10.030;2023-05-07T01:44:22;7.40;;;4.35;;
77726;SDS011;68312;53.502;10.030;2023-05-07T01:46:48;8.10;;;4.57;;
77726;SDS011;68312;53.502;10.030;2023-05-07T01:49:15;9.18;;;5.75;;
77726;SDS011;68312;53.502;10.030;2023-05-07T01:51:41;8.20;;;5.28;;
77726;SDS011;68312;53.502;10.030;2023-05-07T01:54:08;8.25;;;5.03;;
77726;SDS011;68312;53.502;10.030;2023-05-07T01:56:34;8.00;;;4.53;;
77726;SDS011;68312;53.502;10.030;2023-05-07T01:58:59;8.45;;;4.97;;
77726;SDS011;68312;53.502;10.030;2023-05-07T02:01:28;10.38;;;5.60;;
77726;SDS011;68312;53.502;10.030;2023-05-07T02:03:53;8.38;;;4.80;;
77726;SDS011;68312;53.502;10.030;2023-05-07T02:06:19;9.00;;;5.57;;
77726;SDS011;68312;53.502;10.030;2023-05-07T02:08:45;10.40;;;5.20;;
77726;SDS011;68312;53.502;10.030;2023-05-07T02:11:11;8.65;;;5.43;;
77726;SDS011;68312;53.502;10.030;2023-05-07T02:13:40;9.25;;;5.85;;
77726;SDS011;68312;53.502;10.030;2023-05-07T02:16:06;9.63;;;6.03;;
77726;SDS011;68312;53.502;10.030;2023-05-07T02:18:32;10.25;;;4.95;;
77726;SDS011;68312;53.502;10.030;2023-05-07T02:20:57;10.27;;;5.68;;
77726;SDS011;68312;53.502;10.030;2023-05-07T02:23:22;8.70;;;5.63;;
77726;SDS011;68312;53.502;10.030;2023-05-07T02:25:48;9.82;;;6.07;;
77726;SDS011;68312;53.502;10.030;2023-05-07T02:28:14;12.00;;;6.70;;
77726;SDS011;68312;53.502;10.030;2023-05-07T02:30:39;10.15;;;6.10;;
77726;SDS011;68312;53.502;10.030;2023-05-07T02:33:05;11.45;;;6.32;;
77726;SDS011;68312;53.502;10.030;2023-05-07T02:35:30;9.60;;;5.97;;
77726;SDS011;68312;53.502;10.030;2023-05-07T02:37:56;10.23;;;6.38;;
77726;SDS011;68312;53.502;10.030;2023-05-07T02:40:24;9.77;;;5.70;;
77726;SDS011;68312;53.502;10.030;2023-05-07T02:42:50;9.88;;;5.88;;
77726;SDS011;68312;53.502;10.030;2023-05-07T02:45:15;12.70;;;5.75;;
77726;SDS011;68312;53.502;10.030;2023-05-07T02:47:41;12.55;;;6.30;;
77726;SDS011;68312;53.502;10.030;2023-05-07T02:50:07;12.70;;;6.22;;
77726;SDS011;68312;53.502;10.030;2023-05-07T02:52:32;12.23;;;5.70;;
77726;SDS011;68312;53.502;10.030;2023-05-07T02:54:58;9.35;;;6.05;;
77726;SDS011;68312;53.502;10.030;2023-05-07T02:57:23;10.82;;;6.15;;
77726;SDS011;68312;53.502;10.030;2023-05-07T02:59:49;10.25;;;5.60;;
77726;SDS011;68312;53.502;10.030;2023-05-07T03:02:14;11.05;;;6.18;;
77726;SDS011;68312;53.502;10.030;2023-05-07T03:04:40;11.00;;;6.40;;
77726;SDS011;68312;53.502;10.030;2023-05-07T03:07:05;10.20;;;5.88;;
77726;SDS011;68312;53.502;10.030;2023-05-07T03:09:31;12.35;;;6.10;;
77726;SDS011;68312;53.502;10.030;2023-05-07T03:11:56;12.88;;;6.13;;
77726;SDS011;68312;53.502;10.030;2023-05-07T03:14:25;11.73;;;6.18;;
77726;SDS011;68312;53.502;10.030;2023-05-07T03:16:50;12.70;;;6.50;;
77726;SDS011;68312;53.502;10.030;2023-05-07T03:19:16;11.65;;;6.43;;
77726;SDS011;68312;53.502;10.030;2023-05-07T03:21:41;14.38;;;7.35;;
77726;SDS011;68312;53.502;10.030;2023-05-07T03:24:07;12.45;;;6.82;;
77726;SDS011;68312;53.502;10.030;2023-05-07T03:26:32;13.77;;;7.03;;
77726;SDS011;68312;53.502;10.030;2023-05-07T03:28:58;13.38;;;6.90;;
77726;SDS011;68312;53.502;10.030;2023-05-07T03:31:23;13.70;;;7.40;;
77726;SDS011;68312;53.502;10.030;2023-05-07T03:33:50;13.43;;;7.13;;
77726;SDS011;68312;53.502;10.030;2023-05-07T03:36:18;11.27;;;6.70;;
77726;SDS011;68312;53.502;10.030;2023-05-07T03:38:44;15.20;;;7.82;;
77726;SDS011;68312;53.502;10.030;2023-05-07T03:41:10;12.63;;;7.25;;
77726;SDS011;68312;53.502;10.030;2023-05-07T03:43:35;14.23;;;7.80;;
77726;SDS011;68312;53.502;10.030;2023-05-07T03:46:01;13.57;;;7.18;;
77726;SDS011;68312;53.502;10.030;2023-05-07T03:48:26;12.57;;;6.75;;
77726;SDS011;68312;53.502;10.030;2023-05-07T03:50:52;13.93;;;7.45;;
77726;SDS011;68312;53.502;10.030;2023-05-07T03:53:17;11.38;;;6.40;;
77726;SDS011;68312;53.502;10.030;2023-05-07T03:55:42;13.60;;;7.85;;
77726;SDS011;68312;53.502;10.030;2023-05-07T03:58:08;12.40;;;6.82;;
77726;SDS011;68312;53.502;10.030;2023-05-07T04:00:34;12.63;;;6.80;;
77726;SDS011;68312;53.502;10.030;2023-05-07T04:02:59;12.85;;;7.45;;
77726;SDS011;68312;53.502;10.030;2023-05-07T04:05:25;12.52;;;7.03;;
77726;SDS011;68312;53.502;10.030;2023-05-07T04:07:50;12.38;;;6.63;;
77726;SDS011;68312;53.502;10.030;2023-05-07T04:10:16;12.40;;;6.85;;
77726;SDS011;68312;53.502;10.030;2023-05-07T04:12:41;11.32;;;6.68;;
77726;SDS011;68312;53.502;10.030;2023-05-07T04:15:07;13.35;;;7.00;;
77726;SDS011;68312;53.502;10.030;2023-05-07T04:17:33;10.70;;;6.20;;
77726;SDS011;68312;53.502;10.030;2023-05-07T04:19:58;10.82;;;6.53;;
77726;SDS011;68312;53.502;10.030;2023-05-07T04:22:24;12.63;;;6.68;;
77726;SDS011;68312;53.502;10.030;2023-05-07T04:24:49;9.32;;;5.63;;
77726;SDS011;68312;53.502;10.030;2023-05-07T04:27:14;13.95;;;6.50;;
77726;SDS011;68312;53.502;10.030;2023-05-07T04:29:40;9.30;;;6.15;;
77726;SDS011;68312;53.502;10.030;2023-05-07T04:32:05;12.70;;;5.97;;
77726;SDS011;68312;53.502;10.030;2023-05-07T04:34:31;12.15;;;7.32;;
77726;SDS011;68312;53.502;10.030;2023-05-07T04:36:57;11.63;;;6.70;;
77726;SDS011;68312;53.502;10.030;2023-05-07T04:39:24;12.48;;;6.35;;
77726;SDS011;68312;53.502;10.030;2023-05-07T04:41:55;10.00;;;5.43;;
77726;SDS011;68312;53.502;10.030;2023-05-07T04:44:20;12.75;;;6.03;;
77726;SDS011;68312;53.502;10.030;2023-05-07T04:46:46;13.32;;;7.07;;
77726;SDS011;68312;53.502;10.030;2023-05-07T04:49:11;11.27;;;5.75;;
77726;SDS011;68312;53.502;10.030;2023-05-07T04:51:37;13.02;;;6.60;;
77726;SDS011;68312;53.502;10.030;2023-05-07T04:54:02;11.32;;;7.13;;
77726;SDS011;68312;53.502;10.030;2023-05-07T04:56:28;12.00;;;6.60;;
77726;SDS011;68312;53.502;10.030;2023-05-07T04:58:54;10.10;;;6.10;;
77726;SDS011;68312;53.502;10.030;2023-05-07T05:01:19;11.20;;;6.25;;
77726;SDS011;68312;53.502;10.030;2023-05-07T05:03:45;11.40;;;6.13;;
77726;SDS011;68312;53.502;10.030;2023-05-07T05:06:11;11.23;;;6.10;;
77726;SDS011;68312;53.502;10.030;2023-05-07T05:08:36;14.25;;;6.25;;
77726;SDS011;68312;53.502;10.030;2023-05-07T05:11:02;10.02;;;5.18;;
77726;SDS011;68312;53.502;10.030;2023-05-07T05:13:28;13.48;;;6.80;;
77726;SDS011;68312;53.502;10.030;2023-05-07T05:15:54;12.23;;;7.13;;
77726;SDS011;68312;53.502;10.030;2023-05-07T05:18:19;12.70;;;6.22;;
77726;SDS011;68312;53.502;10.030;2023-05-07T05:20:45;9.63;;;5.70;;
77726;SDS011;68312;53.502;10.030;2023-05-07T05:23:10;11.60;;;6.25;;
77726;SDS011;68312;53.502;10.030;2023-05-07T05:25:36;10.23;;;5.93;;
77726;SDS011;68312;53.502;10.030;2023-05-07T05:28:01;10.65;;;5.75;;
77726;SDS011;68312;53.502;10.030;2023-05-07T05:30:27;9.00;;;5.93;;
77726;SDS011;68312;53.502;10.030;2023-05-07T05:32:52;9.75;;;5.68;;
77726;SDS011;68312;53.502;10.030;2023-05-07T05:35:18;8.35;;;5.70;;
77726;SDS011;68312;53.502;10.030;2023-05-07T05:37:43;9.82;;;5.43;;
77726;SDS011;68312;53.502;10.030;2023-05-07T05:40:09;10.40;;;5.70;;
77726;SDS011;68312;53.502;10.030;2023-05-07T05:42:35;10.07;;;6.00;;
77726;SDS011;68312;53.502;10.030;2023-05-07T05:45:04;11.55;;;6.03;;
77726;SDS011;68312;53.502;10.030;2023-05-07T05:47:30;10.52;;;5.80;;
77726;SDS011;68312;53.502;10.030;2023-05-07T05:49:59;9.90;;;6.15;;
77726;SDS011;68312;53.502;10.030;2023-05-07T05:52:24;10.10;;;5.97;;
77726;SDS011;68312;53.502;10.030;2023-05-07T05:54:50;17.27;;;8.23;;
77726;SDS011;68312;53.502;10.030;2023-05-07T05:57:15;9.95;;;7.45;;
77726;SDS011;68312;53.502;10.030;2023-05-07T05:59:41;15.48;;;9.95;;
77726;SDS011;68312;53.502;10.030;2023-05-07T06:02:07;14.80;;;9.63;;
77726;SDS011;68312;53.502;10.030;2023-05-07T06:04:32;13.43;;;7.20;;
77726;SDS011;68312;53.502;10.030;2023-05-07T06:06:58;12.25;;;7.50;;
77726;SDS011;68312;53.502;10.030;2023-05-07T06:09:26;12.70;;;7.05;;
77726;SDS011;68312;53.502;10.030;2023-05-07T06:11:52;10.30;;;6.45;;
77726;SDS011;68312;53.502;10.030;2023-05-07T06:14:17;9.50;;;6.07;;
77726;SDS011;68312;53.502;10.030;2023-05-07T06:16:43;10.45;;;6.30;;
77726;SDS011;68312;53.502;10.030;2023-05-07T06:19:09;10.93;;;5.88;;
77726;SDS011;68312;53.502;10.030;2023-05-07T06:21:34;11.38;;;6.80;;
77726;SDS011;68312;53.502;10.030;2023-05-07T06:24:00;8.80;;;5.97;;
77726;SDS011;68312;53.502;10.030;2023-05-07T06:26:25;9.98;;;5.93;;
77726;SDS011;68312;53.502;10.030;2023-05-07T06:28:51;13.20;;;7.50;;
77726;SDS011;68312;53.502;10.030;2023-05-07T06:31:19;10.60;;;6.32;;
77726;SDS011;68312;53.502;10.030;2023-05-07T06:33:44;10.40;;;6.10;;
77726;SDS011;68312;53.502;10.030;2023-05-07T06:36:10;10.30;;;6.07;;
77726;SDS011;68312;53.502;10.030;2023-05-07T06:38:35;11.63;;;7.10;;
77726;SDS011;68312;53.502;10.030;2023-05-07T06:41:01;10.40;;;6.35;;
77726;SDS011;68312;53.502;10.030;2023-05-07T06:43:26;11.63;;;5.57;;
77726;SDS011;68312;53.502;10.030;2023-05-07T06:45:52;12.23;;;7.45;;
77726;SDS011;68312;53.502;10.030;2023-05-07T06:48:18;11.63;;;6.85;;
77726;SDS011;68312;53.502;10.030;2023-05-07T06:50:43;8.20;;;5.65;;
77726;SDS011;68312;53.502;10.030;2023-05-07T06:53:08;11.05;;;6.57;;
77726;SDS011;68312;53.502;10.030;2023-05-07T06:55:34;11.57;;;6.47;;
77726;SDS011;68312;53.502;10.030;2023-05-07T06:58:02;9.93;;;6.28;;
77726;SDS011;68312;53.502;10.030;2023-05-07T07:00:31;10.07;;;5.32;;
77726;SDS011;68312;53.502;10.030;2023-05-07T07:02:56;11.73;;;6.88;;
77726;SDS011;68312;53.502;10.030;2023-05-07T07:05:25;9.45;;;6.28;;
77726;SDS011;68312;53.502;10.030;2023-05-07T07:07:50;11.68;;;6.13;;
77726;SDS011;68312;53.502;10.030;2023-05-07T07:10:16;12.07;;;6.53;;
77726;SDS011;68312;53.502;10.030;2023-05-07T07:12:42;10.15;;;5.15;;
77726;SDS011;68312;53.502;10.030;2023-05-07T07:15:07;8.95;;;5.93;;
77726;SDS011;68312;53.502;10.030;2023-05-07T07:17:33;11.40;;;6.05;;
77726;SDS011;68312;53.502;10.030;2023-05-07T07:19:58;10.15;;;5.72;;
77726;SDS011;68312;53.502;10.030;2023-05-07T07:22:24;9.60;;;5.15;;
77726;SDS011;68312;53.502;10.030;2023-05-07T07:24:50;8.55;;;4.88;;
77726;SDS011;68312;53.502;10.030;2023-05-07T07:27:15;9.23;;;5.43;;
77726;SDS011;68312;53.502;10.030;2023-05-07T07:29:41;9.82;;;4.57;;
77726;SDS011;68312;53.502;10.030;2023-05-07T07:32:06;9.52;;;5.47;;
77726;SDS011;68312;53.502;10.030;2023-05-07T07:34:31;7.63;;;4.55;;
77726;SDS011;68312;53.502;10.030;2023-05-07T07:36:57;10.63;;;4.88;;
77726;SDS011;68312;53.502;10.030;2023-05-07T07:39:23;10.00;;;5.28;;
77726;SDS011;68312;53.502;10.030;2023-05-07T07:41:48;9.13;;;5.38;;
77726;SDS011;68312;53.502;10.030;2023-05-07T07:44:14;9.55;;;5.38;;
77726;SDS011;68312;53.502;10.030;2023-05-07T07:46:39;8.88;;;5.20;;
77726;SDS011;68312;53.502;10.030;2023-05-07T07:49:05;9.82;;;5.22;;
77726;SDS011;68312;53.502;10.030;2023-05-07T07:51:30;9.35;;;5.20;;
77726;SDS011;68312;53.502;10.030;2023-05-07T07:53:56;10.38;;;5.53;;
77726;SDS011;68312;53.502;10.030;2023-05-07T07:56:21;8.68;;;4.95;;
77726;SDS011;68312;53.502;10.030;2023-05-07T07:58:47;7.43;;;4.97;;
77726;SDS011;68312;53.502;10.030;2023-05-07T08:01:12;8.88;;;4.85;;
77726;SDS011;68312;53.502;10.030;2023-05-07T08:03:38;10.07;;;5.15;;
77726;SDS011;68312;53.502;10.030;2023-05-07T08:06:03;7.05;;;4.30;;
77726;SDS011;68312;53.502;10.030;2023-05-07T08:08:29;8.93;;;4.85;;
77726;SDS011;68312;53.502;10.030;2023-05-07T08:10:54;7.65;;;4.38;;
77726;SDS011;68312;53.502;10.030;2023-05-07T08:13:20;6.65;;;4.13;;
77726;SDS011;68312;53.502;10.030;2023-05-07T08:15:45;8.43;;;5.05;;
77726;SDS011;68312;53.502;10.030;2023-05-07T08:18:11;7.28;;;4.38;;
77726;SDS011;68312;53.502;10.030;2023-05-07T08:20:36;8.38;;;4.60;;
77726;SDS011;68312;53.502;10.030;2023-05-07T08:23:05;7.28;;;4.47;;
77726;SDS011;68312;53.502;10.030;2023-05-07T08:25:32;7.13;;;4.43;;
77726;SDS011;68312;53.502;10.030;2023-05-07T08:27:59;6.50;;;4.20;;
77726;SDS011;68312;53.502;10.030;2023-05-07T08:30:27;7.05;;;4.30;;
77726;SDS011;68312;53.502;10.030;2023-05-07T08:32:53;7.78;;;4.45;;
77726;SDS011;68312;53.502;10.030;2023-05-07T08:35:18;9.73;;;5.00;;
77726;SDS011;68312;53.502;10.030;2023-05-07T08:37:44;8.98;;;5.25;;
77726;SDS011;68312;53.502;10.030;2023-05-07T08:40:09;9.57;;;4.22;;
77726;SDS011;68312;53.502;10.030;2023-05-07T08:42:35;6.65;;;4.35;;
77726;SDS011;68312;53.502;10.030;2023-05-07T08:45:05;9.07;;;4.80;;
77726;SDS011;68312;53.502;10.030;2023-05-07T08:47:40;8.18;;;4.75;;
77726;SDS011;68312;53.502;10.030;2023-05-07T08:50:11;8.30;;;4.72;;
77726;SDS011;68312;53.502;10.030;2023-05-07T08:52:37;8.70;;;4.65;;
77726;SDS011;68312;53.502;10.030;2023-05-07T08:55:03;7.63;;;4.65;;
77726;SDS011;68312;53.502;10.030;2023-05-07T08:57:31;8.27;;;4.80;;
77726;SDS011;68312;53.502;10.030;2023-05-07T08:59:56;8.45;;;5.30;;
77726;SDS011;68312;53.502;10.030;2023-05-07T09:02:22;9.20;;;4.53;;
77726;SDS011;68312;53.502;10.030;2023-05-07T09:04:47;9.20;;;4.97;;
77726;SDS011;68312;53.502;10.030;2023-05-07T09:07:13;9.77;;;5.22;;
77726;SDS011;68312;53.502;10.030;2023-05-07T09:09:39;8.45;;;5.18;;
77726;SDS011;68312;53.502;10.030;2023-05-07T09:12:04;7.25;;;4.82;;
77726;SDS011;68312;53.502;10.030;2023-05-07T09:14:30;13.48;;;5.38;;
77726;SDS011;68312;53.502;10.030;2023-05-07T09:16:56;8.05;;;5.15;;
77726;SDS011;68312;53.502;10.030;2023-05-07T09:19:25;7.85;;;4.65;;
77726;SDS011;68312;53.502;10.030;2023-05-07T09:22:01;8.18;;;4.97;;
77726;SDS011;68312;53.502;10.030;2023-05-07T09:24:30;8.85;;;4.55;;
77726;SDS011;68312;53.502;10.030;2023-05-07T09:26:59;7.55;;;4.75;;
77726;SDS011;68312;53.502;10.030;2023-05-07T09:29:24;7.85;;;5.32;;
77726;SDS011;68312;53.502;10.030;2023-05-07T09:31:50;7.82;;;4.72;;
77726;SDS011;68312;53.502;10.030;2023-05-07T09:34:16;8.02;;;4.50;;
77726;SDS011;68312;53.502;10.030;2023-05-07T09:36:41;6.68;;;4.68;;
77726;SDS011;68312;53.502;10.030;2023-05-07T09:39:07;9.77;;;4.65;;
77726;SDS011;68312;53.502;10.030;2023-05-07T09:41:32;7.00;;;4.53;;
77726;SDS011;68312;53.502;10.030;2023-05-07T09:44:08;7.25;;;4.90;;
77726;SDS011;68312;53.502;10.030;2023-05-07T09:46:34;10.57;;;4.72;;
77726;SDS011;68312;53.502;10.030;2023-05-07T09:49:06;7.63;;;4.88;;
77726;SDS011;68312;53.502;10.030;2023-05-07T09:51:48;7.07;;;4.45;;
77726;SDS011;68312;53.502;10.030;2023-05-07T09:54:18;7.03;;;4.38;;
77726;SDS011;68312;53.502;10.030;2023-05-07T09:56:48;6.90;;;4.43;;
77726;SDS011;68312;53.502;10.030;2023-05-07T09:59:14;7.43;;;4.20;;
77726;SDS011;68312;53.502;10.030;2023-05-07T10:01:42;7.50;;;4.28;;
77726;SDS011;68312;53.502;10.030;2023-05-07T10:04:10;7.38;;;4.30;;
77726;SDS011;68312;53.502;10.030;2023-05-07T10:06:37;7.80;;;4.25;;
77726;SDS011;68312;53.502;10.030;2023-05-07T10:09:03;8.45;;;4.90;;
77726;SDS011;68312;53.502;10.030;2023-05-07T10:11:30;7.50;;;5.45;;
77726;SDS011;68312;53.502;10.030;2023-05-07T10:14:04;8.73;;;5.13;;
77726;SDS011;68312;53.502;10.030;2023-05-07T10:16:31;7.13;;;4.60;;
77726;SDS011;68312;53.502;10.030;2023-05-07T10:19:00;7.85;;;4.80;;
77726;SDS011;68312;53.502;10.030;2023-05-07T10:21:33;5.93;;;4.30;;
77726;SDS011;68312;53.502;10.030;2023-05-07T10:24:10;7.55;;;5.00;;
77726;SDS011;68312;53.502;10.030;2023-05-07T10:27:02;7.13;;;4.30;;
77726;SDS011;68312;53.502;10.030;2023-05-07T10:35:17;7.18;;;3.95;;
77726;SDS011;68312;53.502;10.030;2023-05-07T10:37:50;6.65;;;4.45;;
77726;SDS011;68312;53.502;10.030;2023-05-07T10:40:16;6.75;;;4.55;;
77726;SDS011;68312;53.502;10.030;2023-05-07T10:45:34;6.25;;;4.25;;
77726;SDS011;68312;53.502;10.030;2023-05-07T10:48:13;5.13;;;3.97;;
77726;SDS011;68312;53.502;10.030;2023-05-07T10:50:41;7.95;;;4.60;;
77726;SDS011;68312;53.502;10.030;2023-05-07T10:55:42;6.03;;;3.90;;
77726;SDS011;68312;53.502;10.030;2023-05-07T10:58:49;6.05;;;3.67;;
77726;SDS011;68312;53.502;10.030;2023-05-07T11:01:14;6.05;;;3.75;;
77726;SDS011;68312;53.502;10.030;2023-05-07T11:06:41;6.60;;;3.72;;
77726;SDS011;68312;53.502;10.030;2023-05-07T11:09:06;7.68;;;4.57;;
77726;SDS011;68312;53.502;10.030;2023-05-07T11:11:44;5.32;;;4.00;;
77726;SDS011;68312;53.502;10.030;2023-05-07T11:14:34;7.50;;;4.27;;
77726;SDS011;68312;53.502;10.030;2023-05-07T11:17:06;11.27;;;4.05;;
77726;SDS011;68312;53.502;10.030;2023-05-07T11:25:02;5.35;;;3.65;;
77726;SDS011;68312;53.502;10.030;2023-05-07T11:27:29;5.97;;;4.13;;
77726;SDS011;68312;53.502;10.030;2023-05-07T11:29:55;5.82;;;3.72;;
77726;SDS011;68312;53.502;10.030;2023-05-07T11:34:57;6.20;;;4.05;;
77726;SDS011;68312;53.502;10.030;2023-05-07T11:37:26;7.30;;;3.88;;
77726;SDS011;68312;53.502;10.030;2023-05-07T11:40:02;5.75;;;3.95;;
77726;SDS011;68312;53.502;10.030;2023-05-07T11:42:32;6.90;;;3.95;;
77726;SDS011;68312;53.502;10.030;2023-05-07T11:45:02;6.35;;;3.78;;
77726;SDS011;68312;53.502;10.030;2023-05-07T11:47:32;5.43;;;3.78;;
77726;SDS011;68312;53.502;10.030;2023-05-07T11:50:05;5.80;;;4.07;;
77726;SDS011;68312;53.502;10.030;2023-05-07T11:52:33;5.40;;;3.63;;
77726;SDS011;68312;53.502;10.030;2023-05-07T11:55:01;7.78;;;3.70;;
77726;SDS011;68312;53.502;10.030;2023-05-07T11:57:27;6.07;;;3.13;;
77726;SDS011;68312;53.502;10.030;2023-05-07T11:59:56;5.80;;;3.40;;
77726;SDS011;68312;53.502;10.030;2023-05-07T12:02:25;4.35;;;3.28;;
77726;SDS011;68312;53.502;10.030;2023-05-07T12:04:51;5.03;;;3.38;;
77726;SDS011;68312;53.502;10.030;2023-05-07T12:07:18;5.85;;;3.58;;
77726;SDS011;68312;53.502;10.030;2023-05-07T12:09:44;5.53;;;3.45;;
77726;SDS011;68312;53.502;10.030;2023-05-07T12:12:11;4.85;;;2.97;;
77726;SDS011;68312;53.502;10.030;2023-05-07T12:14:37;5.15;;;3.10;;
77726;SDS011;68312;53.502;10.030;2023-05-07T12:17:09;5.72;;;3.20;;
77726;SDS011;68312;53.502;10.030;2023-05-07T12:19:37;4.40;;;3.10;;
77726;SDS011;68312;53.502;10.030;2023-05-07T12:22:09;4.80;;;2.88;;
77726;SDS011;68312;53.502;10.030;2023-05-07T12:27:22;4.20;;;2.90;;
77726;SDS011;68312;53.502;10.030;2023-05-07T12:29:49;4.00;;;2.88;;
77726;SDS011;68312;53.502;10.030;2023-05-07T12:32:18;4.43;;;3.00;;
77726;SDS011;68312;53.502;10.030;2023-05-07T12:34:49;3.92;;;2.72;;
77726;SDS011;68312;53.502;10.030;2023-05-07T12:37:16;5.70;;;2.67;;
77726;SDS011;68312;53.502;10.030;2023-05-07T12:39:47;3.90;;;2.83;;
77726;SDS011;68312;53.502;10.030;2023-05-07T12:42:15;2.88;;;2.35;;
77726;SDS011;68312;53.502;10.030;2023-05-07T12:44:45;4.60;;;2.50;;
77726;SDS011;68312;53.502;10.030;2023-05-07T12:47:11;3.20;;;2.40;;
77726;SDS011;68312;53.502;10.030;2023-05-07T12:49:37;3.50;;;2.67;;
77726;SDS011;68312;53.502;10.030;2023-05-07T12:52:02;3.78;;;2.63;;
77726;SDS011;68312;53.502;10.030;2023-05-07T12:54:28;43.03;;;6.75;;
77726;SDS011;68312;53.502;10.030;2023-05-07T12:59:38;3.03;;;2.37;;
77726;SDS011;68312;53.502;10.030;2023-05-07T13:02:06;3.40;;;2.50;;
77726;SDS011;68312;53.502;10.030;2023-05-07T13:04:33;4.70;;;2.30;;
77726;SDS011;68312;53.502;10.030;2023-05-07T13:07:00;4.60;;;2.30;;
77726;SDS011;68312;53.502;10.030;2023-05-07T13:09:27;3.53;;;2.50;;
77726;SDS011;68312;53.502;10.030;2023-05-07T13:11:53;4.25;;;2.40;;
77726;SDS011;68312;53.502;10.030;2023-05-07T13:14:18;5.40;;;2.63;;
77726;SDS011;68312;53.502;10.030;2023-05-07T13:16:44;4.68;;;2.83;;
77726;SDS011;68312;53.502;10.030;2023-05-07T13:19:09;6.85;;;2.83;;
77726;SDS011;68312;53.502;10.030;2023-05-07T13:21:34;3.75;;;2.67;;
77726;SDS011;68312;53.502;10.030;2023-05-07T13:24:00;3.63;;;2.20;;
77726;SDS011;68312;53.502;10.030;2023-05-07T13:26:26;3.35;;;2.40;;
77726;SDS011;68312;53.502;10.030;2023-05-07T13:28:52;2.72;;;1.98;;
77726;SDS011;68312;53.502;10.030;2023-05-07T13:31:19;3.38;;;2.33;;
77726;SDS011;68312;53.502;10.030;2023-05-07T13:33:44;4.20;;;2.25;;
77726;SDS011;68312;53.502;10.030;2023-05-07T13:36:09;2.65;;;2.20;;
77726;SDS011;68312;53.502;10.030;2023-05-07T13:38:35;3.83;;;2.20;;
77726;SDS011;68312;53.502;10.030;2023-05-07T13:41:01;3.90;;;2.50;;
77726;SDS011;68312;53.502;10.030;2023-05-07T13:43:26;3.33;;;2.63;;
77726;SDS011;68312;53.502;10.030;2023-05-07T13:45:52;3.42;;;2.13;;
77726;SDS011;68312;53.502;10.030;2023-05-07T13:48:17;2.80;;;1.90;;
77726;SDS011;68312;53.502;10.030;2023-05-07T13:50:43;2.80;;;2.17;;
77726;SDS011;68312;53.502;10.030;2023-05-07T13:53:08;4.35;;;2.22;;
77726;SDS011;68312;53.502;10.030;2023-05-07T13:55:34;2.90;;;2.15;;
77726;SDS011;68312;53.502;10.030;2023-05-07T13:58:00;3.92;;;2.00;;
77726;SDS011;68312;53.502;10.030;2023-05-07T14:00:27;3.55;;;2.30;;
77726;SDS011;68312;53.502;10.030;2023-05-07T14:02:54;3.50;;;2.00;;
77726;SDS011;68312;53.502;10.030;2023-05-07T14:05:21;4.18;;;2.05;;
77726;SDS011;68312;53.502;10.030;2023-05-07T14:07:47;3.47;;;1.80;;
77726;SDS011;68312;53.502;10.030;2023-05-07T14:10:14;3.22;;;1.75;;
77726;SDS011;68312;53.502;10.030;2023-05-07T14:12:40;5.35;;;1.77;;
77726;SDS011;68312;53.502;10.030;2023-05-07T14:15:05;2.45;;;1.70;;
77726;SDS011;68312;53.502;10.030;2023-05-07T14:17:32;2.55;;;1.70;;
77726;SDS011;68312;53.502;10.030;2023-05-07T14:19:57;3.45;;;1.83;;
77726;SDS011;68312;53.502;10.030;2023-05-07T14:22:23;3.72;;;2.03;;
77726;SDS011;68312;53.502;10.030;2023-05-07T14:24:48;2.85;;;1.60;;
77726;SDS011;68312;53.502;10.030;2023-05-07T14:27:15;3.97;;;1.85;;
77726;SDS011;68312;53.502;10.030;2023-05-07T14:29:41;2.45;;;1.58;;
77726;SDS011;68312;53.502;10.030;2023-05-07T14:32:06;3.53;;;1.75;;
77726;SDS011;68312;53.502;10.030;2023-05-07T14:34:32;4.55;;;1.70;;
77726;SDS011;68312;53.502;10.030;2023-05-07T14:36:58;2.08;;;1.52;;
77726;SDS011;68312;53.502;10.030;2023-05-07T14:39:25;2.20;;;1.50;;
77726;SDS011;68312;53.502;10.030;2023-05-07T14:41:50;2.40;;;1.65;;
77726;SDS011;68312;53.502;10.030;2023-05-07T14:44:16;2.88;;;1.85;;
77726;SDS011;68312;53.502;10.030;2023-05-07T14:46:42;3.55;;;1.85;;
77726;SDS011;68312;53.502;10.030;2023-05-07T14:49:07;4.10;;;1.63;;
77726;SDS011;68312;53.502;10.030;2023-05-07T14:51:33;4.25;;;1.75;;
77726;SDS011;68312;53.502;10.030;2023-05-07T14:53:58;5.07;;;1.70;;